createdAt,value
2019-02-20T00:05:01.954Z,5.90
2019-02-20T00:10:07.844Z,5.90
2019-02-20T00:15:13.719Z,5.90
2019-02-20T00:20:19.150Z,5.90
2019-02-20T00:25:24.939Z,5.90
2019-02-20T00:30:31.430Z,5.90
2019-02-20T00:35:37.191Z,5.90
2019-02-20T00:40:42.953Z,5.90
2019-02-20T00:46:51.361Z,5.90
2019-02-20T00:52:37.369Z,6.00
2019-02-20T00:57:43.148Z,6.00
2019-02-20T01:02:48.571Z,6.00
2019-02-20T01:07:54.035Z,6.10
2019-02-20T01:12:59.492Z,6.00
2019-02-20T01:18:05.008Z,6.00
2019-02-20T01:23:10.437Z,6.00
2019-02-20T01:33:34.988Z,6.00
2019-02-20T01:38:40.755Z,6.00
2019-02-20T01:43:46.186Z,6.00
2019-02-20T01:48:51.616Z,6.00
2019-02-20T01:53:57.071Z,6.00
2019-02-20T01:59:02.507Z,6.00
2019-02-20T02:04:08.346Z,6.00
2019-02-20T02:09:13.794Z,6.00
2019-02-20T02:14:19.250Z,6.00
2019-02-20T02:19:25.011Z,6.00
2019-02-20T02:24:30.451Z,6.00
2019-02-20T02:29:36.269Z,6.00
2019-02-20T02:34:42.088Z,6.00
2019-02-20T02:39:47.567Z,6.00
2019-02-20T02:44:53.765Z,6.00
2019-02-20T02:49:59.195Z,6.00
2019-02-20T02:55:04.728Z,5.80
2019-02-20T03:00:10.482Z,5.90
2019-02-20T03:05:16.285Z,6.10
2019-02-20T03:10:21.721Z,6.00
2019-02-20T03:15:27.556Z,6.00
2019-02-20T03:20:32.983Z,5.90
2019-02-20T03:25:38.413Z,5.90
2019-02-20T03:30:43.945Z,5.80
2019-02-20T03:35:49.725Z,5.80
2019-02-20T03:40:55.181Z,5.90
2019-02-20T03:46:00.618Z,5.80
2019-02-20T03:51:06.519Z,5.70
2019-02-20T03:56:11.982Z,5.70
2019-02-20T04:01:17.758Z,5.70
2019-02-20T04:06:23.186Z,5.70
2019-02-20T04:11:28.610Z,5.70
2019-02-20T04:16:34.226Z,5.80
2019-02-20T04:21:39.718Z,5.80
2019-02-20T04:26:45.180Z,5.80
2019-02-20T04:31:50.629Z,5.80
2019-02-20T04:36:56.169Z,6.00
2019-02-20T04:42:01.611Z,6.00
2019-02-20T04:47:07.570Z,6.10
2019-02-20T04:52:13.039Z,6.10
2019-02-20T04:57:18.481Z,6.10
2019-02-20T05:02:23.944Z,6.10
2019-02-20T05:07:29.395Z,6.10
2019-02-20T05:12:34.877Z,6.10
2019-02-20T05:17:40.658Z,6.20
2019-02-20T05:22:46.125Z,6.20
2019-02-20T05:27:51.912Z,6.20
2019-02-20T05:32:57.424Z,6.30
2019-02-20T05:38:02.939Z,6.30
2019-02-20T05:43:08.605Z,6.30
2019-02-20T05:48:14.146Z,6.30
2019-02-20T05:53:19.621Z,6.30
2019-02-20T05:58:25.203Z,6.30
2019-02-20T06:03:30.760Z,6.30
2019-02-20T06:08:38.105Z,6.30
2019-02-20T06:13:43.591Z,6.40
2019-02-20T06:18:49.106Z,6.30
2019-02-20T06:23:54.567Z,6.30
2019-02-20T06:29:00.094Z,6.40
2019-02-20T06:34:05.564Z,6.40
2019-02-20T06:39:11.103Z,6.40
2019-02-20T06:44:16.538Z,6.50
2019-02-20T06:49:21.966Z,6.40
2019-02-20T06:54:27.467Z,6.50
2019-02-20T06:59:32.980Z,6.50
2019-02-20T07:04:38.424Z,6.70
2019-02-20T07:10:00.435Z,6.80
2019-02-20T07:15:17.951Z,6.90
2019-02-20T07:20:57.405Z,7.00
2019-02-20T07:26:24.170Z,7.00
2019-02-20T07:31:29.602Z,7.00
2019-02-20T07:36:35.723Z,7.10
2019-02-20T07:41:41.236Z,7.10
2019-02-20T07:46:46.778Z,7.20
2019-02-20T07:51:52.234Z,7.20
2019-02-20T07:56:57.779Z,7.30
2019-02-20T08:02:03.261Z,7.40
2019-02-20T08:07:09.143Z,7.40
2019-02-20T08:12:14.629Z,7.40
2019-02-20T08:17:20.059Z,7.40
2019-02-20T08:22:25.512Z,7.50
2019-02-20T08:32:51.172Z,7.50
2019-02-20T08:37:56.636Z,7.50
2019-02-20T08:43:02.424Z,7.50
2019-02-20T08:48:08.311Z,7.50
2019-02-20T08:53:13.770Z,7.40
2019-02-20T08:58:19.678Z,7.30
2019-02-20T09:03:25.109Z,7.20
2019-02-20T09:08:30.570Z,7.30
2019-02-20T09:13:36.111Z,7.40
2019-02-20T09:18:41.945Z,7.50
2019-02-20T09:23:47.390Z,7.70
2019-02-20T09:28:52.871Z,7.90
2019-02-20T09:33:58.759Z,8.00
2019-02-20T09:39:24.922Z,8.00
2019-02-20T09:44:34.491Z,8.20
2019-02-20T09:49:39.923Z,8.30
2019-02-20T09:54:45.386Z,8.50
2019-02-20T09:59:50.838Z,8.50
2019-02-20T10:04:56.370Z,8.70
2019-02-20T10:10:01.925Z,8.80
2019-02-20T10:15:08.508Z,8.90
2019-02-20T10:20:14.372Z,9.00
2019-02-20T10:25:20.178Z,9.00
2019-02-20T10:30:25.622Z,8.90
2019-02-20T10:35:31.087Z,9.20
2019-02-20T10:40:36.683Z,8.80
2019-02-20T10:45:42.170Z,9.00
2019-02-20T10:50:47.755Z,9.10
2019-02-20T10:55:53.217Z,9.30
2019-02-20T11:00:59.391Z,9.20
2019-02-20T11:06:05.606Z,9.40
2019-02-20T11:11:11.174Z,9.60
2019-02-20T11:16:16.702Z,9.50
2019-02-20T11:21:22.160Z,9.20
2019-02-20T11:26:27.606Z,9.40
2019-02-20T11:31:33.143Z,9.90
2019-02-20T11:36:40.478Z,10.20
2019-02-20T11:41:44.474Z,10.40
2019-02-20T11:46:49.932Z,10.20
2019-02-20T11:51:55.418Z,10.80
2019-02-20T11:57:01.246Z,10.80
2019-02-20T12:02:07.045Z,11.10
2019-02-20T12:07:12.903Z,11.60
2019-02-20T12:12:18.379Z,11.70
2019-02-20T12:17:24.250Z,11.80
2019-02-20T12:22:30.087Z,11.40
2019-02-20T12:27:35.578Z,11.40
2019-02-20T12:32:41.387Z,11.40
2019-02-20T12:37:47.171Z,11.40
2019-02-20T12:42:52.646Z,11.40
2019-02-20T12:47:58.095Z,10.90
2019-02-20T12:53:04.298Z,10.50
2019-02-20T12:58:10.198Z,11.00
2019-02-20T13:03:15.647Z,11.10
2019-02-20T13:08:21.117Z,11.00
2019-02-20T13:13:26.799Z,11.20
2019-02-20T13:18:32.676Z,11.00
2019-02-20T13:23:38.465Z,10.70
2019-02-20T13:28:44.270Z,11.00
2019-02-20T13:33:49.764Z,11.40
2019-02-20T13:38:55.211Z,11.70
2019-02-20T13:44:00.670Z,11.30
2019-02-20T13:49:06.251Z,12.10
2019-02-20T13:54:12.118Z,12.00
2019-02-20T13:59:17.992Z,12.40
2019-02-20T14:04:23.538Z,11.60
2019-02-20T14:09:28.995Z,11.20
2019-02-20T14:14:35.510Z,10.80
2019-02-20T14:19:41.926Z,10.90
2019-02-20T14:24:49.155Z,11.00
2019-02-20T14:29:52.887Z,10.90
2019-02-20T14:34:58.386Z,10.80
2019-02-20T14:40:04.271Z,10.70
2019-02-20T14:45:10.978Z,10.50
2019-02-20T14:50:16.440Z,10.50
2019-02-20T14:55:22.279Z,10.40
2019-02-20T15:00:28.514Z,10.30
2019-02-20T15:05:34.059Z,10.20
2019-02-20T15:10:40.031Z,10.00
2019-02-20T15:15:47.409Z,10.00
2019-02-20T15:20:51.482Z,9.90
2019-02-20T15:25:57.303Z,9.90
2019-02-20T15:31:02.813Z,9.80
2019-02-20T15:36:08.514Z,9.70
2019-02-20T15:41:13.991Z,9.70
2019-02-20T15:46:19.471Z,9.70
2019-02-20T15:51:25.286Z,9.60
2019-02-20T15:56:30.754Z,9.60
2019-02-20T16:01:36.598Z,9.60
2019-02-20T16:06:42.095Z,9.50
2019-02-20T16:11:48.307Z,9.40
2019-02-20T16:16:53.780Z,9.30
2019-02-20T16:21:59.399Z,9.20
2019-02-20T16:27:04.965Z,9.20
2019-02-20T16:32:10.427Z,9.20
2019-02-20T16:37:16.092Z,9.20
2019-02-20T16:42:21.574Z,9.20
2019-02-20T16:47:27.063Z,9.10
2019-02-20T16:52:32.624Z,9.10
2019-02-20T16:57:38.774Z,9.10
2019-02-20T17:02:44.751Z,9.10
2019-02-20T17:07:50.912Z,9.10
2019-02-20T17:12:56.502Z,9.00
2019-02-20T17:18:02.547Z,9.00
2019-02-20T17:23:08.586Z,9.00
2019-02-20T17:28:14.134Z,8.90
2019-02-20T17:33:19.990Z,8.90
2019-02-20T17:38:25.893Z,8.90
2019-02-20T17:43:31.408Z,8.80
2019-02-20T17:48:36.880Z,8.90
2019-02-20T17:53:42.736Z,8.90
2019-02-20T17:58:48.223Z,8.80
2019-02-20T18:03:53.680Z,8.80
2019-02-20T18:08:59.115Z,8.80
2019-02-20T18:14:04.915Z,8.80
2019-02-20T18:19:10.439Z,8.70
2019-02-20T18:24:16.247Z,8.60
2019-02-20T18:29:21.913Z,8.60
2019-02-20T18:34:37.268Z,8.60
2019-02-20T18:39:42.698Z,8.60
2019-02-20T18:44:48.171Z,8.50
2019-02-20T18:49:53.596Z,8.50
2019-02-20T18:55:05.530Z,8.50
2019-02-20T19:00:05.109Z,8.50
2019-02-20T19:05:11.126Z,8.50
2019-02-20T19:10:23.304Z,8.50
2019-02-20T19:17:56.711Z,8.50
2019-02-20T19:23:17.520Z,8.40
2019-02-20T19:28:44.462Z,8.30
2019-02-20T19:34:05.581Z,8.20
2019-02-20T19:39:33.135Z,8.10
2019-02-20T19:45:09.807Z,7.90
2019-02-20T19:52:33.828Z,7.90
2019-02-20T19:58:04.850Z,7.80
2019-02-20T20:05:34.161Z,7.70
2019-02-20T20:11:44.995Z,7.80
2019-02-20T20:17:24.337Z,7.90
2019-02-20T20:25:59.153Z,8.00
2019-02-20T20:33:45.449Z,7.90
2019-02-20T20:39:19.283Z,7.90
2019-02-20T20:44:44.085Z,7.90
2019-02-20T20:50:11.804Z,7.90
2019-02-20T20:55:45.970Z,7.90
2019-02-20T21:03:07.166Z,7.90
2019-02-20T21:08:22.462Z,7.80
2019-02-20T21:13:55.967Z,7.80
2019-02-20T21:19:21.790Z,7.70
2019-02-20T21:24:49.166Z,7.70
2019-02-20T21:31:11.764Z,7.60
2019-02-20T21:37:00.123Z,7.60
2019-02-20T21:42:47.153Z,7.60
2019-02-20T21:49:38.464Z,7.60
2019-02-20T21:57:08.885Z,7.50
2019-02-20T22:02:55.038Z,7.40
2019-02-20T22:08:38.441Z,7.30
2019-02-20T22:15:01.364Z,7.20
2019-02-20T22:20:39.630Z,7.10
2019-02-20T22:28:00.619Z,6.80
2019-02-20T22:33:38.108Z,6.70
2019-02-20T22:38:56.532Z,6.50
2019-02-20T22:46:34.771Z,6.00
2019-02-20T22:52:03.400Z,5.80
2019-02-20T22:57:34.851Z,5.60
2019-02-20T23:05:01.989Z,5.40
2019-02-20T23:14:49.708Z,5.20
2019-02-20T23:19:55.151Z,5.30
2019-02-20T23:25:00.697Z,5.30
2019-02-20T23:30:12.867Z,5.30
2019-02-20T23:35:13.818Z,5.20
2019-02-20T23:40:19.275Z,5.20
2019-02-20T23:45:24.708Z,5.10
2019-02-20T23:50:30.122Z,5.20
2019-02-20T23:55:35.698Z,5.40
